Terminal Aerodrome Forecast
Issued by NWS Portland, OR

Home | Current Version | Previous Version | Text Only | Print | Product List | Glossary On
Versions: 1 2 3 4 5 6 7 8 9 10 11 12 13 14 15 16 17 18 19 20 21 22 23 24 25 26 27 28 29 30 31 32 33 34 35 36 37 38 39 40 41 42 43
000
FTUS46 KPQR 030533
TAFAST
TAF
KAST 030533Z 0306/0406 24004KT P6SM BKN120
     FM030800 29005KT P6SM BKN007
     FM031100 29004KT 5SM BR OVC005
     FM031700 30010KT P6SM OVC015
     FM040300 30008KT P6SM OVC007=

USA.gov is the U.S. government's official web portal to all federal, state and local government web resources and services.